createdAt,value
2023-02-18T00:02:03.525Z,57.25
2023-02-18T00:04:33.017Z,57.38
2023-02-18T00:07:02.316Z,57.95
2023-02-18T00:09:30.910Z,57.91
2023-02-18T00:11:59.798Z,57.82
2023-02-18T00:14:28.953Z,57.71
2023-02-18T00:16:57.994Z,57.78
2023-02-18T00:19:26.664Z,57.85
2023-02-18T00:21:55.607Z,58.04
2023-02-18T00:24:24.664Z,57.81
2023-02-18T00:26:54.010Z,57.93
2023-02-18T00:29:22.759Z,57.96
2023-02-18T00:31:51.633Z,57.89
2023-02-18T00:34:20.499Z,58.16
2023-02-18T00:36:49.343Z,58.33
2023-02-18T00:39:18.329Z,58.04
2023-02-18T00:41:47.149Z,57.93
2023-02-18T00:44:15.995Z,57.87
2023-02-18T00:46:45.029Z,57.85
2023-02-18T00:49:13.639Z,58.16
2023-02-18T00:51:42.610Z,58.26
2023-02-18T00:54:11.421Z,58.09
2023-02-18T00:56:39.967Z,58.08
2023-02-18T00:59:08.867Z,57.95
2023-02-18T01:01:37.564Z,57.97
2023-02-18T01:04:06.794Z,58.30
2023-02-18T01:06:35.617Z,58.40
2023-02-18T01:09:06.233Z,58.20
2023-02-18T01:11:35.338Z,58.08
2023-02-18T01:14:04.263Z,57.93
2023-02-18T01:16:33.397Z,58.37
2023-02-18T01:19:02.372Z,58.67
2023-02-18T01:21:31.215Z,59.19
2023-02-18T01:24:00.160Z,58.98
2023-02-18T01:26:28.935Z,58.70
2023-02-18T01:28:57.852Z,58.72
2023-02-18T01:31:26.549Z,58.77
2023-02-18T01:33:55.512Z,59.23
2023-02-18T01:36:24.545Z,59.15
2023-02-18T01:38:54.334Z,58.94
2023-02-18T01:41:23.543Z,58.63
2023-02-18T01:44:16.758Z,59.00
2023-02-18T01:46:46.130Z,58.87
2023-02-18T01:49:21.460Z,59.10
2023-02-18T01:51:57.949Z,59.46
2023-02-18T01:54:32.269Z,59.03
2023-02-18T01:57:08.078Z,59.07
2023-02-18T01:59:50.724Z,58.95
2023-02-18T02:02:22.934Z,59.03
2023-02-18T02:04:52.792Z,59.21
2023-02-18T02:07:24.045Z,59.25
2023-02-18T02:09:56.821Z,59.23
2023-02-18T02:12:55.546Z,59.01
2023-02-18T02:15:50.367Z,59.40
2023-02-18T02:18:27.532Z,59.97
2023-02-18T02:21:27.080Z,59.91
2023-02-18T02:24:20.227Z,59.60
2023-02-18T02:27:07.323Z,59.70
2023-02-18T02:30:24.470Z,59.82
2023-02-18T02:33:25.588Z,60.06
2023-02-18T02:36:17.258Z,59.91
2023-02-18T02:39:27.851Z,59.68
2023-02-18T02:42:18.830Z,60.15
2023-02-18T02:44:57.965Z,60.10
2023-02-18T02:47:33.166Z,60.49
2023-02-18T02:50:09.558Z,60.46
2023-02-18T02:52:45.460Z,60.37
2023-02-18T02:55:15.495Z,60.40
2023-02-18T02:57:46.818Z,60.30
2023-02-18T03:00:19.108Z,60.66
2023-02-18T03:03:07.096Z,60.66
2023-02-18T03:05:45.111Z,60.33
2023-02-18T03:08:39.829Z,60.35
2023-02-18T03:11:15.267Z,59.99
2023-02-18T03:14:27.748Z,60.50
2023-02-18T03:17:13.276Z,60.81
2023-02-18T03:19:51.025Z,60.74
2023-02-18T03:22:19.794Z,60.60
2023-02-18T03:24:52.126Z,60.58
2023-02-18T03:27:23.986Z,60.69
2023-02-18T03:30:16.251Z,60.54
2023-02-18T03:32:48.075Z,60.38
2023-02-18T03:35:18.974Z,60.57
2023-02-18T03:38:03.333Z,60.22
2023-02-18T03:40:32.825Z,60.50
2023-02-18T03:43:01.966Z,60.73
2023-02-18T03:45:31.281Z,61.04
2023-02-18T03:48:00.221Z,60.62
2023-02-18T03:50:29.049Z,60.77
2023-02-18T03:52:57.945Z,60.79
2023-02-18T03:55:27.034Z,61.00
2023-02-18T03:57:56.429Z,60.63
2023-02-18T04:00:25.621Z,60.11
2023-02-18T04:02:54.808Z,59.81
2023-02-18T04:05:24.513Z,59.90
2023-02-18T04:07:53.338Z,59.97
2023-02-18T04:10:23.365Z,60.22
2023-02-18T04:12:52.362Z,60.70
2023-02-18T04:15:21.290Z,60.82
2023-02-18T04:17:50.650Z,60.97
2023-02-18T04:20:20.446Z,61.27
2023-02-18T04:22:49.579Z,61.28
2023-02-18T04:25:18.513Z,61.19
2023-02-18T04:27:47.428Z,61.16
2023-02-18T04:30:18.784Z,61.22
2023-02-18T04:32:47.726Z,61.41
2023-02-18T04:35:16.806Z,61.67
2023-02-18T04:37:45.490Z,61.36
2023-02-18T04:40:15.440Z,61.40
2023-02-18T04:42:44.149Z,61.53
2023-02-18T04:45:13.210Z,61.96
2023-02-18T04:47:41.937Z,62.08
2023-02-18T04:50:11.990Z,61.92
2023-02-18T04:52:40.847Z,62.01
2023-02-18T04:55:09.766Z,61.87
2023-02-18T04:57:38.902Z,61.95
2023-02-18T05:00:11.650Z,62.36
2023-02-18T05:02:40.465Z,62.61
2023-02-18T05:05:09.975Z,62.19
2023-02-18T05:07:39.267Z,62.04
2023-02-18T05:10:09.484Z,62.24
2023-02-18T05:12:38.301Z,62.29
2023-02-18T05:15:08.144Z,62.28
2023-02-18T05:17:36.673Z,61.96
2023-02-18T05:20:08.830Z,61.88
2023-02-18T05:22:38.960Z,62.10
2023-02-18T05:25:08.338Z,62.18
2023-02-18T05:27:37.289Z,61.98
2023-02-18T05:30:07.258Z,61.36
2023-02-18T05:32:36.400Z,61.66
2023-02-18T05:35:06.252Z,61.65
2023-02-18T05:37:35.581Z,61.35
2023-02-18T05:40:05.520Z,61.30
2023-02-18T05:42:34.235Z,61.30
2023-02-18T05:45:03.411Z,61.38
2023-02-18T05:47:32.433Z,61.48
2023-02-18T05:50:01.454Z,61.19
2023-02-18T05:52:30.195Z,61.22
2023-02-18T05:54:59.348Z,61.69
2023-02-18T05:57:28.822Z,61.69
2023-02-18T06:00:00.094Z,61.78
2023-02-18T06:02:29.344Z,61.81
2023-02-18T06:04:57.978Z,61.88
2023-02-18T06:07:26.942Z,61.31
2023-02-18T06:09:55.894Z,61.82
2023-02-18T06:12:25.354Z,62.05
2023-02-18T06:14:54.132Z,62.22
2023-02-18T06:17:23.108Z,61.82
2023-02-18T06:19:52.323Z,61.70
2023-02-18T06:22:21.114Z,62.11
2023-02-18T06:24:50.409Z,61.96
2023-02-18T06:27:19.580Z,62.12
2023-02-18T06:29:48.557Z,62.10
2023-02-18T06:32:17.417Z,62.16
2023-02-18T06:34:46.499Z,62.27
2023-02-18T06:37:16.459Z,62.02
2023-02-18T06:39:45.455Z,62.02
2023-02-18T06:42:14.521Z,61.90
2023-02-18T06:44:43.254Z,62.25
2023-02-18T06:47:12.105Z,62.63
2023-02-18T06:49:41.401Z,62.27
2023-02-18T06:52:10.304Z,62.38
2023-02-18T06:54:39.635Z,62.69
2023-02-18T06:57:08.460Z,62.74
2023-02-18T06:59:37.850Z,61.99
2023-02-18T07:02:06.976Z,61.17
2023-02-18T07:04:35.988Z,60.70
2023-02-18T07:07:05.003Z,60.78
2023-02-18T07:09:34.213Z,60.69
2023-02-18T07:12:03.350Z,60.40
2023-02-18T07:14:32.688Z,60.33
2023-02-18T07:17:01.723Z,60.09
2023-02-18T07:19:30.785Z,60.08
2023-02-18T07:21:59.519Z,60.23
2023-02-18T07:24:28.318Z,60.31
2023-02-18T07:26:57.640Z,60.00
2023-02-18T07:29:26.582Z,59.69
2023-02-18T07:31:55.740Z,59.77
2023-02-18T07:34:24.881Z,59.64
2023-02-18T07:36:53.734Z,59.51
2023-02-18T07:39:22.455Z,59.32
2023-02-18T07:41:51.473Z,59.30
2023-02-18T07:44:20.339Z,58.97
2023-02-18T07:46:49.481Z,58.81
2023-02-18T07:49:18.956Z,58.92
2023-02-18T07:51:49.735Z,58.92
2023-02-18T07:54:18.990Z,58.56
2023-02-18T07:56:48.404Z,58.41
2023-02-18T07:59:17.761Z,58.03
2023-02-18T08:01:47.852Z,57.66
2023-02-18T08:04:17.044Z,57.40
2023-02-18T08:06:49.141Z,57.38
2023-02-18T08:09:18.653Z,57.46
2023-02-18T08:11:47.555Z,57.13
2023-02-18T08:14:17.947Z,56.96
2023-02-18T08:16:47.521Z,56.99
2023-02-18T08:19:16.701Z,57.15
2023-02-18T08:21:46.682Z,57.06
2023-02-18T08:24:15.615Z,57.03
2023-02-18T08:26:59.392Z,57.13
2023-02-18T08:29:30.238Z,57.18
2023-02-18T08:32:00.083Z,56.93
2023-02-18T08:34:30.340Z,56.81
2023-02-18T08:36:59.864Z,56.86
2023-02-18T08:39:29.036Z,56.65
2023-02-18T08:41:57.820Z,56.67
2023-02-18T08:44:28.002Z,56.33
2023-02-18T08:46:57.489Z,55.86
2023-02-18T08:49:26.469Z,55.81
2023-02-18T08:51:56.014Z,55.47
2023-02-18T08:54:25.371Z,55.29
2023-02-18T08:56:58.418Z,55.12
2023-02-18T08:59:28.420Z,55.08
2023-02-18T09:01:57.870Z,54.78
2023-02-18T09:04:27.343Z,54.63
2023-02-18T09:06:57.491Z,54.62
2023-02-18T09:09:26.670Z,54.72
2023-02-18T09:11:56.582Z,54.97
2023-02-18T09:14:25.580Z,54.93
2023-02-18T09:16:55.205Z,54.58
2023-02-18T09:19:25.311Z,54.57
2023-02-18T09:21:54.345Z,54.49
2023-02-18T09:24:25.730Z,54.49
2023-02-18T09:26:56.098Z,54.47
2023-02-18T09:29:25.286Z,54.47
2023-02-18T09:31:54.622Z,54.26
2023-02-18T09:34:23.846Z,54.24
2023-02-18T09:36:53.254Z,54.13
2023-02-18T09:39:22.563Z,54.06
2023-02-18T09:41:58.523Z,53.84
2023-02-18T09:44:45.819Z,53.71
2023-02-18T09:47:17.468Z,53.53
2023-02-18T09:49:55.397Z,53.40
2023-02-18T09:52:34.425Z,53.26
2023-02-18T09:55:21.344Z,52.93
2023-02-18T09:57:54.116Z,53.07
2023-02-18T10:00:29.364Z,52.85
2023-02-18T10:03:20.540Z,52.47
2023-02-18T10:05:58.509Z,52.19
2023-02-18T10:08:37.487Z,51.82
2023-02-18T10:11:17.404Z,51.42
2023-02-18T10:13:46.994Z,51.09
2023-02-18T10:16:19.644Z,50.51
2023-02-18T10:18:54.855Z,50.13
2023-02-18T10:21:37.352Z,49.97
2023-02-18T10:24:29.655Z,49.70
2023-02-18T10:27:01.146Z,49.35
2023-02-18T10:29:32.967Z,48.62
2023-02-18T10:32:21.308Z,48.07
2023-02-18T10:35:18.432Z,47.91
2023-02-18T10:38:03.540Z,47.55
2023-02-18T10:41:06.404Z,47.15
2023-02-18T10:43:55.678Z,46.93
2023-02-18T10:46:58.042Z,46.74
2023-02-18T10:49:45.760Z,46.36
2023-02-18T10:52:17.998Z,46.19
2023-02-18T10:54:59.225Z,45.99
2023-02-18T10:57:28.764Z,45.89
2023-02-18T11:00:02.444Z,45.87
2023-02-18T11:02:33.436Z,45.78
2023-02-18T11:05:17.284Z,45.68
2023-02-18T11:07:53.355Z,45.78
2023-02-18T11:10:31.685Z,45.71
2023-02-18T11:13:08.392Z,45.78
2023-02-18T11:15:38.504Z,45.70
2023-02-18T11:18:41.199Z,45.59
2023-02-18T11:21:27.575Z,45.39
2023-02-18T11:23:58.620Z,45.29
2023-02-18T11:26:33.962Z,45.18
2023-02-18T11:29:25.054Z,45.30
2023-02-18T11:31:57.831Z,45.37
2023-02-18T11:34:32.386Z,45.22
2023-02-18T11:37:19.175Z,45.24
2023-02-18T11:39:52.563Z,45.03
2023-02-18T11:42:25.391Z,44.90
2023-02-18T11:44:58.196Z,44.86
2023-02-18T11:47:36.148Z,44.75
2023-02-18T11:50:11.835Z,44.90
2023-02-18T11:52:52.015Z,44.84
2023-02-18T11:55:25.357Z,44.92
2023-02-18T11:57:59.896Z,44.83
2023-02-18T12:00:43.357Z,44.56
2023-02-18T12:03:15.286Z,44.75
2023-02-18T12:05:46.431Z,44.67
2023-02-18T12:08:25.975Z,44.80
2023-02-18T12:11:07.710Z,44.46
2023-02-18T12:13:54.322Z,44.52
2023-02-18T12:16:23.894Z,44.36
2023-02-18T12:19:19.764Z,44.13
2023-02-18T12:22:13.821Z,44.13
2023-02-18T12:25:14.714Z,44.16
2023-02-18T12:27:49.393Z,44.28
2023-02-18T12:30:53.087Z,44.08
2023-02-18T12:33:36.032Z,44.11
2023-02-18T12:36:23.462Z,44.00
2023-02-18T12:39:18.895Z,43.99
2023-02-18T12:42:23.168Z,44.15
2023-02-18T12:45:16.511Z,44.28
2023-02-18T12:48:04.368Z,44.35
2023-02-18T12:50:36.210Z,44.25
2023-02-18T12:53:59.647Z,44.30
2023-02-18T12:56:59.180Z,44.83
2023-02-18T12:59:54.619Z,44.84
2023-02-18T13:02:38.775Z,44.77
2023-02-18T13:05:23.681Z,44.66
2023-02-18T13:08:37.708Z,44.55
2023-02-18T13:11:55.066Z,44.65
2023-02-18T13:14:32.563Z,44.70
2023-02-18T13:17:06.105Z,44.42
2023-02-18T13:19:47.102Z,44.01
2023-02-18T13:22:19.185Z,44.17
2023-02-18T13:24:50.702Z,43.80
2023-02-18T13:27:49.144Z,43.67
2023-02-18T13:30:18.833Z,44.05
2023-02-18T13:32:54.427Z,44.13
2023-02-18T13:35:46.952Z,44.06
2023-02-18T13:38:41.087Z,44.17
2023-02-18T13:41:10.570Z,44.26
2023-02-18T13:43:40.451Z,44.32
2023-02-18T13:46:15.427Z,44.56
2023-02-18T13:49:16.249Z,44.67
2023-02-18T13:51:51.991Z,44.70
2023-02-18T13:54:45.332Z,44.81
2023-02-18T13:57:18.048Z,44.88
2023-02-18T13:59:58.165Z,45.07
2023-02-18T14:02:27.601Z,45.15
2023-02-18T14:04:59.249Z,45.03
2023-02-18T14:07:39.954Z,45.15
2023-02-18T14:10:17.704Z,45.19
2023-02-18T14:12:59.262Z,45.47
2023-02-18T14:15:29.004Z,45.55
2023-02-18T14:18:17.037Z,45.81
2023-02-18T14:20:53.345Z,46.04
2023-02-18T14:23:23.025Z,45.77
2023-02-18T14:26:05.374Z,45.72
2023-02-18T14:28:34.752Z,45.96
2023-02-18T14:31:13.745Z,45.95
2023-02-18T14:34:06.901Z,46.07
2023-02-18T14:36:47.888Z,46.24
2023-02-18T14:39:26.068Z,46.38
2023-02-18T14:42:25.731Z,46.66
2023-02-18T14:45:32.006Z,46.65
2023-02-18T14:48:20.514Z,47.05
2023-02-18T14:50:51.170Z,46.81
2023-02-18T14:53:24.292Z,46.99
2023-02-18T14:55:59.141Z,46.99
2023-02-18T14:58:39.017Z,47.10
2023-02-18T15:01:19.747Z,47.22
2023-02-18T15:03:55.004Z,47.62
2023-02-18T15:06:31.293Z,47.44
2023-02-18T15:09:02.314Z,47.49
2023-02-18T15:11:41.744Z,47.56
2023-02-18T15:14:44.002Z,47.80
2023-02-18T15:17:32.349Z,48.26
2023-02-18T15:20:07.107Z,48.44
2023-02-18T15:22:36.449Z,48.83
2023-02-18T15:25:05.995Z,49.02
2023-02-18T15:27:44.941Z,49.09
2023-02-18T15:30:19.683Z,49.18
2023-02-18T15:32:54.911Z,49.43
2023-02-18T15:35:30.331Z,49.46
2023-02-18T15:38:02.123Z,49.69
2023-02-18T15:40:34.797Z,50.08
2023-02-18T15:43:07.118Z,50.13
2023-02-18T15:45:42.429Z,50.39
2023-02-18T15:48:36.463Z,50.53
2023-02-18T15:51:16.962Z,50.54
2023-02-18T15:53:50.792Z,50.66
2023-02-18T15:56:40.986Z,50.96
2023-02-18T15:59:19.488Z,50.85
2023-02-18T16:01:51.705Z,51.09
2023-02-18T16:04:22.721Z,51.26
2023-02-18T16:06:54.502Z,51.41
2023-02-18T16:09:27.103Z,51.62
2023-02-18T16:12:02.692Z,51.71
2023-02-18T16:14:43.231Z,51.93
2023-02-18T16:17:22.641Z,51.98
2023-02-18T16:20:03.947Z,52.16
2023-02-18T16:22:35.911Z,52.29
2023-02-18T16:25:08.202Z,52.48
2023-02-18T16:27:48.739Z,52.74
2023-02-18T16:30:27.544Z,52.95
2023-02-18T16:32:58.207Z,53.19
2023-02-18T16:35:32.812Z,53.30
2023-02-18T16:38:03.778Z,53.41
2023-02-18T16:40:34.488Z,53.57
2023-02-18T16:43:15.929Z,53.86
2023-02-18T16:45:49.787Z,54.15
2023-02-18T16:48:25.546Z,53.99
2023-02-18T16:50:55.041Z,54.06
2023-02-18T16:53:24.130Z,54.03
2023-02-18T16:55:52.917Z,54.04
2023-02-18T16:58:21.923Z,54.14
2023-02-18T17:00:53.213Z,54.21
2023-02-18T17:03:22.761Z,54.43
2023-02-18T17:05:52.103Z,54.58
2023-02-18T17:08:23.555Z,54.88
2023-02-18T17:10:56.397Z,55.13
2023-02-18T17:13:28.268Z,54.95
2023-02-18T17:15:59.570Z,54.93
2023-02-18T17:18:29.331Z,54.85
2023-02-18T17:20:58.905Z,54.92
2023-02-18T17:23:29.245Z,54.97
2023-02-18T17:25:58.914Z,54.93
2023-02-18T17:28:28.737Z,55.04
2023-02-18T17:30:59.512Z,55.21
2023-02-18T17:33:28.973Z,55.55
2023-02-18T17:35:58.780Z,55.61
2023-02-18T17:38:28.277Z,55.15
2023-02-18T17:40:57.447Z,55.24
2023-02-18T17:43:26.841Z,55.12
2023-02-18T17:45:58.922Z,55.19
2023-02-18T17:48:29.172Z,55.08
2023-02-18T17:50:58.963Z,54.91
2023-02-18T17:53:28.941Z,55.21
2023-02-18T17:55:57.865Z,55.46
2023-02-18T17:58:27.110Z,55.62
2023-02-18T18:00:58.315Z,55.23
2023-02-18T18:03:27.740Z,55.39
2023-02-18T18:05:58.179Z,55.20
2023-02-18T18:08:27.477Z,55.22
2023-02-18T18:11:00.143Z,55.28
2023-02-18T18:13:35.245Z,55.31
2023-02-18T18:16:05.450Z,55.62
2023-02-18T18:18:34.679Z,56.02
2023-02-18T18:21:05.190Z,56.22
2023-02-18T18:23:34.572Z,56.24
2023-02-18T18:26:03.975Z,56.35
2023-02-18T18:28:33.426Z,56.41
2023-02-18T18:31:02.984Z,56.46
2023-02-18T18:33:35.018Z,56.56
2023-02-18T18:36:05.124Z,56.39
2023-02-18T18:38:36.365Z,56.69
2023-02-18T18:41:06.025Z,56.82
2023-02-18T18:43:38.456Z,56.71
2023-02-18T18:46:08.454Z,56.46
2023-02-18T18:48:39.316Z,56.44
2023-02-18T18:51:17.121Z,56.28
2023-02-18T18:53:46.631Z,56.22
2023-02-18T18:56:16.068Z,56.28
2023-02-18T18:58:45.695Z,56.42
2023-02-18T19:01:23.146Z,56.57
2023-02-18T19:03:53.004Z,56.57
2023-02-18T19:06:23.737Z,56.38
2023-02-18T19:08:53.731Z,56.50
2023-02-18T19:11:23.600Z,56.61
2023-02-18T19:13:53.370Z,56.71
2023-02-18T19:16:34.852Z,56.90
2023-02-18T19:19:04.971Z,56.90
2023-02-18T19:21:35.778Z,56.82
2023-02-18T19:24:05.046Z,56.57
2023-02-18T19:26:35.408Z,56.51
2023-02-18T19:29:04.584Z,56.55
2023-02-18T19:31:34.013Z,56.61
2023-02-18T19:34:04.347Z,56.79
2023-02-18T19:36:34.593Z,57.30
2023-02-18T19:39:06.313Z,57.42
2023-02-18T19:41:37.747Z,57.21
2023-02-18T19:44:07.086Z,57.05
2023-02-18T19:46:36.622Z,56.92
2023-02-18T19:49:06.640Z,57.02
2023-02-18T19:51:36.092Z,57.05
2023-02-18T19:54:06.121Z,57.43
2023-02-18T19:56:37.437Z,57.48
2023-02-18T19:59:07.871Z,57.22
2023-02-18T20:01:37.697Z,57.22
2023-02-18T20:04:06.709Z,57.32
2023-02-18T20:06:35.671Z,57.25
2023-02-18T20:09:05.382Z,57.46
2023-02-18T20:11:34.680Z,58.02
2023-02-18T20:14:04.118Z,57.93
2023-02-18T20:16:33.476Z,57.92
2023-02-18T20:19:02.641Z,57.83
2023-02-18T20:21:32.753Z,57.92
2023-02-18T20:24:02.070Z,58.35
2023-02-18T20:26:31.114Z,58.81
2023-02-18T20:29:00.783Z,58.83
2023-02-18T20:31:30.022Z,58.79
2023-02-18T20:34:01.016Z,58.78
2023-02-18T20:36:30.205Z,58.82
2023-02-18T20:39:07.672Z,58.81
2023-02-18T20:41:45.376Z,58.83
2023-02-18T20:44:16.298Z,58.44
2023-02-18T20:46:46.883Z,58.07
2023-02-18T20:49:19.286Z,57.85
2023-02-18T20:51:50.155Z,57.75
2023-02-18T20:54:20.517Z,57.60
2023-02-18T20:56:51.254Z,57.68
2023-02-18T20:59:22.695Z,58.09
2023-02-18T21:01:51.818Z,58.15
2023-02-18T21:04:21.848Z,58.28
2023-02-18T21:06:51.470Z,58.10
2023-02-18T21:09:22.017Z,58.13
2023-02-18T21:11:52.464Z,58.15
2023-02-18T21:14:22.848Z,58.31
2023-02-18T21:16:52.021Z,58.24
2023-02-18T21:19:21.223Z,58.09
2023-02-18T21:21:50.440Z,58.14
2023-02-18T21:24:20.408Z,58.18
2023-02-18T21:26:50.029Z,58.32
2023-02-18T21:29:19.370Z,58.63
2023-02-18T21:31:48.535Z,59.10
2023-02-18T21:34:17.804Z,59.17
2023-02-18T21:36:47.560Z,59.07
2023-02-18T21:39:17.690Z,58.99
2023-02-18T21:41:47.212Z,59.08
2023-02-18T21:44:16.323Z,59.29
2023-02-18T21:46:45.364Z,59.18
2023-02-18T21:49:16.376Z,59.01
2023-02-18T21:51:57.310Z,59.02
2023-02-18T21:54:30.517Z,59.16
2023-02-18T21:57:01.524Z,59.40
2023-02-18T21:59:31.555Z,59.44
2023-02-18T22:02:01.077Z,59.08
2023-02-18T22:04:32.932Z,58.94
2023-02-18T22:07:03.781Z,58.82
2023-02-18T22:09:32.830Z,58.74
2023-02-18T22:12:02.028Z,58.81
2023-02-18T22:14:31.592Z,58.81
2023-02-18T22:17:00.985Z,58.56
2023-02-18T22:19:30.605Z,58.39
2023-02-18T22:22:00.897Z,58.36
2023-02-18T22:24:30.111Z,58.55
2023-02-18T22:27:01.923Z,58.66
2023-02-18T22:29:32.709Z,58.76
2023-02-18T22:32:02.572Z,58.35
2023-02-18T22:34:31.888Z,58.34
2023-02-18T22:37:01.290Z,58.31
2023-02-18T22:39:30.446Z,58.38
2023-02-18T22:41:59.262Z,58.41
2023-02-18T22:44:28.527Z,58.70
2023-02-18T22:46:58.645Z,58.68
2023-02-18T22:49:27.928Z,58.55
2023-02-18T22:51:57.456Z,58.47
2023-02-18T22:54:27.090Z,58.76
2023-02-18T22:56:56.178Z,59.02
2023-02-18T22:59:25.289Z,59.13
2023-02-18T23:01:54.360Z,58.77
2023-02-18T23:04:23.257Z,58.59
2023-02-18T23:06:52.506Z,58.72
2023-02-18T23:09:25.008Z,58.78
2023-02-18T23:11:57.707Z,59.18
2023-02-18T23:14:28.818Z,59.43
2023-02-18T23:17:18.160Z,59.33
2023-02-18T23:19:51.229Z,59.30
2023-02-18T23:22:30.887Z,59.35
2023-02-18T23:25:02.351Z,59.55
2023-02-18T23:27:32.136Z,59.75
2023-02-18T23:30:00.847Z,59.55
2023-02-18T23:32:31.374Z,59.46
2023-02-18T23:35:00.326Z,59.36
2023-02-18T23:37:47.930Z,59.32
2023-02-18T23:40:18.227Z,59.45
2023-02-18T23:42:47.106Z,59.40
2023-02-18T23:45:16.092Z,59.32
2023-02-18T23:47:44.985Z,59.16
2023-02-18T23:50:17.735Z,59.13
2023-02-18T23:52:49.479Z,59.29
2023-02-18T23:55:18.518Z,59.76
2023-02-18T23:57:47.485Z,59.58
